Time;durP1;ratioP1;P1;durP2;ratioP2;P2;SDS_P1;SDS_P2;PMS_P1;PMS_P2;Temp;Humidity;BMP_temperature;BMP_pressure;BME280_temperature;BME280_humidity;BME280_pressure;Samples;Min_cycle;Max_cycle;Signal;HPM_P1;HPM_P2
2023/03/12 00:01:32;;;;;;;7.82;3.58;;;0.60;99.90;;;;;;5119213;27;20050;-82
2023/03/12 00:04:00;;;;;;;6.55;3.90;;;1.00;99.90;;;;;;5103969;27;20142;-80
2023/03/12 00:06:25;;;;;;;12.23;6.47;;;0.50;99.90;;;;;;5133834;27;20121;-79
2023/03/12 00:08:51;;;;;;;13.45;7.60;;;0.90;99.90;;;;;;5101870;27;20051;-80
2023/03/12 00:11:18;;;;;;;13.35;6.22;;;0.10;99.90;;;;;;5101671;27;20142;-80
2023/03/12 00:13:48;;;;;;;6.68;3.30;;;0.10;99.90;;;;;;5110310;27;20125;-78
2023/03/12 00:16:15;;;;;;;6.25;3.70;;;0.10;99.90;;;;;;5120006;27;20054;-78
2023/03/12 00:18:42;;;;;;;6.57;3.25;;;0.00;99.90;;;;;;5101944;27;20050;-78
2023/03/12 00:21:08;;;;;;;5.18;3.33;;;1.10;99.90;;;;;;5104492;27;20094;-78
2023/03/12 00:23:34;;;;;;;6.65;3.45;;;1.80;99.90;;;;;;5117429;27;20078;-78
2023/03/12 00:26:10;;;;;;;4.70;3.00;;;0.70;99.90;;;;;;5103566;27;20046;-78
2023/03/12 00:28:36;;;;;;;5.85;3.05;;;0.00;99.90;;;;;;5133391;27;20038;-78
2023/03/12 00:31:03;;;;;;;9.15;3.28;;;-1.60;99.90;;;;;;5118073;27;20107;-78
2023/03/12 00:33:28;;;;;;;7.20;3.20;;;0.00;99.90;;;;;;5123365;27;20126;-78
2023/03/12 00:35:55;;;;;;;7.40;3.53;;;-0.10;99.90;;;;;;5084781;27;20742;-78
2023/03/12 00:38:21;;;;;;;7.35;3.45;;;1.30;99.90;;;;;;5124342;27;20136;-79
2023/03/12 00:40:47;;;;;;;5.97;3.03;;;1.30;99.90;;;;;;5100639;27;20057;-77
2023/03/12 00:43:13;;;;;;;7.45;3.22;;;1.60;99.90;;;;;;5099271;27;20082;-79
2023/03/12 00:45:39;;;;;;;6.65;3.10;;;1.40;99.90;;;;;;5098298;27;20050;-77
2023/03/12 00:48:05;;;;;;;8.70;3.53;;;0.50;99.90;;;;;;5114223;27;20049;-77
2023/03/12 00:50:31;;;;;;;7.57;3.20;;;-0.20;99.90;;;;;;5124508;27;20054;-78
2023/03/12 00:52:56;;;;;;;5.93;3.05;;;-0.20;99.90;;;;;;5105814;27;20042;-78
2023/03/12 00:55:22;;;;;;;6.95;3.55;;;1.20;99.90;;;;;;5102425;27;20489;-76
2023/03/12 00:57:48;;;;;;;6.95;3.30;;;-0.30;99.90;;;;;;5099761;27;20047;-79
2023/03/12 01:00:14;;;;;;;8.40;3.55;;;0.80;99.90;;;;;;5113155;27;20502;-78
2023/03/12 01:02:40;;;;;;;5.72;2.75;;;-0.30;99.90;;;;;;5133114;27;20049;-77
2023/03/12 01:05:09;;;;;;;8.02;3.40;;;-0.30;99.90;;;;;;5114870;27;20047;-77
2023/03/12 01:07:35;;;;;;;5.90;4.00;;;-0.30;99.90;;;;;;5130499;27;20062;-79
2023/03/12 01:10:01;;;;;;;5.68;3.00;;;-0.30;99.90;;;;;;5108113;27;20085;-77
2023/03/12 01:12:27;;;;;;;6.10;3.20;;;-0.30;99.90;;;;;;5107933;27;20068;-75
2023/03/12 01:14:53;;;;;;;8.52;3.00;;;0.30;99.90;;;;;;5099575;27;20057;-77
2023/03/12 01:17:18;;;;;;;6.78;3.30;;;-0.30;99.90;;;;;;5108477;27;20091;-77
2023/03/12 01:19:44;;;;;;;6.65;3.20;;;1.40;99.90;;;;;;5082520;27;20049;-77
2023/03/12 01:22:10;;;;;;;6.05;3.17;;;1.10;99.90;;;;;;5133106;27;20038;-77
2023/03/12 01:24:36;;;;;;;6.85;3.70;;;1.40;99.90;;;;;;5114186;27;20146;-77
2023/03/12 01:27:02;;;;;;;4.43;2.83;;;0.10;99.90;;;;;;5133470;27;20044;-77
2023/03/12 01:29:27;;;;;;;6.00;3.20;;;0.70;99.90;;;;;;5099674;27;20076;-77
2023/03/12 01:31:53;;;;;;;7.68;3.65;;;0.30;99.90;;;;;;5131427;27;20062;-79
2023/03/12 01:34:19;;;;;;;7.85;3.47;;;1.10;99.90;;;;;;5130320;27;20131;-79
2023/03/12 01:36:46;;;;;;;8.18;3.55;;;1.40;99.90;;;;;;5123582;27;20449;-79
2023/03/12 01:39:12;;;;;;;8.20;3.60;;;0.50;99.90;;;;;;5116149;27;20057;-79
2023/03/12 01:41:39;;;;;;;5.43;3.30;;;1.60;99.90;;;;;;5121399;27;20615;-79
2023/03/12 01:44:06;;;;;;;5.28;3.10;;;1.00;99.90;;;;;;5129838;27;20527;-79
2023/03/12 01:46:38;;;;;;;6.28;3.60;;;0.60;99.90;;;;;;5114447;27;20043;-77
2023/03/12 01:49:18;;;;;;;6.50;3.63;;;-0.20;99.90;;;;;;5131326;27;20035;-78
2023/03/12 01:51:46;;;;;;;7.50;3.90;;;-0.10;99.90;;;;;;5112098;27;20049;-78
2023/03/12 01:54:49;;;;;;;6.82;3.75;;;-0.10;99.90;;;;;;5118590;27;20046;-78
2023/03/12 01:57:19;;;;;;;6.15;3.75;;;0.00;99.90;;;;;;5114274;27;20082;-79
2023/03/12 01:59:51;;;;;;;9.82;4.07;;;0.00;99.90;;;;;;5115881;27;20077;-77
2023/03/12 02:02:22;;;;;;;6.05;3.40;;;0.10;99.90;;;;;;5132634;27;20056;-79
2023/03/12 02:04:50;;;;;;;6.90;3.80;;;1.80;99.90;;;;;;5115513;27;20053;-77
2023/03/12 02:07:17;;;;;;;5.88;3.17;;;1.70;99.90;;;;;;5115731;27;20107;-79
2023/03/12 02:09:47;;;;;;;6.72;3.22;;;0.20;99.90;;;;;;5113191;27;20043;-78
2023/03/12 02:12:13;;;;;;;11.68;3.53;;;0.50;99.90;;;;;;5131404;27;20051;-79
2023/03/12 02:14:40;;;;;;;6.38;3.40;;;0.30;99.90;;;;;;5130371;27;20102;-79
2023/03/12 02:17:06;;;;;;;5.70;2.90;;;0.30;99.90;;;;;;5131463;27;20114;-78
2023/03/12 02:19:41;;;;;;;8.55;3.10;;;1.50;99.90;;;;;;5122051;27;20099;-78
2023/03/12 02:22:08;;;;;;;8.50;3.20;;;0.00;99.90;;;;;;5114825;27;20046;-77
2023/03/12 02:25:03;;;;;;;5.38;2.95;;;0.40;99.90;;;;;;5150803;27;20137;-78
2023/03/12 02:27:35;;;;;;;4.50;3.08;;;0.40;99.90;;;;;;5124095;27;20050;-77
2023/03/12 02:30:02;;;;;;;9.23;4.15;;;1.10;99.90;;;;;;5120891;27;20050;-77
2023/03/12 02:32:34;;;;;;;6.07;3.25;;;0.40;99.90;;;;;;5116183;27;20079;-77
2023/03/12 02:35:02;;;;;;;7.60;2.90;;;0.40;99.90;;;;;;5115432;27;20042;-77
2023/03/12 02:37:27;;;;;;;4.50;2.95;;;1.10;99.90;;;;;;5132417;27;20081;-77
2023/03/12 02:40:04;;;;;;;4.28;2.85;;;0.40;99.90;;;;;;5118467;27;20165;-78
2023/03/12 02:42:31;;;;;;;6.93;2.95;;;0.40;99.90;;;;;;5115210;27;20078;-77
2023/03/12 02:44:58;;;;;;;5.28;2.55;;;1.50;99.90;;;;;;5132006;27;20620;-78
2023/03/12 02:47:23;;;;;;;4.13;2.65;;;0.50;99.90;;;;;;5118104;27;20042;-78
2023/03/12 02:49:51;;;;;;;6.63;2.60;;;0.70;99.90;;;;;;5106239;27;20084;-77
2023/03/12 02:52:16;;;;;;;6.40;2.97;;;1.50;99.90;;;;;;5105797;27;20130;-78
2023/03/12 02:54:42;;;;;;;6.13;3.00;;;0.60;99.90;;;;;;5116006;27;20408;-77
2023/03/12 02:57:08;;;;;;;7.00;2.85;;;0.60;99.90;;;;;;5141817;27;20038;-77
2023/03/12 02:59:33;;;;;;;4.85;2.60;;;2.20;99.90;;;;;;5116893;27;20038;-77
2023/03/12 03:02:00;;;;;;;6.28;2.70;;;2.10;99.90;;;;;;5094460;27;20042;-76
2023/03/12 03:04:28;;;;;;;7.03;2.63;;;0.70;99.90;;;;;;5119160;27;20086;-77
2023/03/12 03:06:54;;;;;;;7.05;3.17;;;1.60;99.90;;;;;;5117643;27;20046;-77
2023/03/12 03:09:21;;;;;;;5.25;2.65;;;0.60;99.90;;;;;;5102335;27;20046;-78
2023/03/12 03:11:47;;;;;;;4.60;2.65;;;0.60;99.90;;;;;;5102314;27;20042;-77
2023/03/12 03:14:13;;;;;;;5.25;3.00;;;1.10;99.90;;;;;;5133911;27;20701;-77
2023/03/12 03:16:39;;;;;;;6.63;3.17;;;0.90;99.90;;;;;;5118552;27;20042;-77
2023/03/12 03:19:06;;;;;;;4.95;2.83;;;0.80;99.90;;;;;;5116475;27;20395;-77
2023/03/12 03:21:31;;;;;;;6.15;2.88;;;1.50;99.90;;;;;;5136517;27;20132;-76
2023/03/12 03:23:57;;;;;;;5.25;2.85;;;0.60;99.90;;;;;;5110333;27;20485;-77
2023/03/12 03:26:24;;;;;;;7.55;3.40;;;2.00;99.90;;;;;;5116344;27;20053;-77
2023/03/12 03:28:50;;;;;;;8.25;3.55;;;0.60;99.90;;;;;;5117282;27;20125;-77
2023/03/12 03:31:16;;;;;;;6.75;3.10;;;0.60;99.90;;;;;;5109084;27;20054;-77
2023/03/12 03:33:43;;;;;;;6.72;3.22;;;0.60;99.90;;;;;;5133362;27;20211;-77
2023/03/12 03:36:10;;;;;;;4.75;2.92;;;1.40;99.90;;;;;;5134816;27;20046;-77
2023/03/12 03:38:36;;;;;;;6.50;3.65;;;0.60;99.90;;;;;;5135727;27;20079;-77
2023/03/12 03:41:02;;;;;;;5.88;3.53;;;0.70;99.90;;;;;;5119979;27;20161;-77
2023/03/12 03:43:28;;;;;;;6.55;3.25;;;0.60;99.90;;;;;;5144164;27;20125;-78
2023/03/12 03:46:02;;;;;;;6.30;3.25;;;0.70;99.90;;;;;;5117153;27;20070;-77
2023/03/12 03:48:28;;;;;;;4.75;3.08;;;1.10;99.90;;;;;;5126103;27;20054;-78
2023/03/12 03:50:58;;;;;;;6.05;3.10;;;0.70;99.90;;;;;;5087626;27;20095;-77
2023/03/12 03:53:24;;;;;;;7.00;2.78;;;0.70;99.90;;;;;;5126299;27;20098;-77
2023/03/12 03:55:49;;;;;;;8.52;3.22;;;0.70;99.90;;;;;;5117024;27;20368;-77
2023/03/12 03:58:15;;;;;;;6.55;3.67;;;0.70;99.90;;;;;;5104030;27;20055;-77
2023/03/12 04:00:44;;;;;;;5.05;3.35;;;1.80;99.90;;;;;;5133630;27;20054;-77
2023/03/12 04:03:09;;;;;;;7.80;3.05;;;0.70;99.90;;;;;;5109059;27;20054;-77
2023/03/12 04:05:35;;;;;;;7.35;3.40;;;2.10;99.90;;;;;;5133718;27;20060;-77
2023/03/12 04:08:02;;;;;;;5.80;3.50;;;1.30;99.90;;;;;;5116642;27;20049;-77
2023/03/12 04:10:29;;;;;;;5.00;3.10;;;0.70;99.90;;;;;;5119645;27;20050;-77
2023/03/12 04:12:54;;;;;;;4.45;3.03;;;0.70;99.90;;;;;;5117074;27;20047;-77
2023/03/12 04:15:21;;;;;;;9.57;3.30;;;1.20;99.90;;;;;;5117454;27;20046;-77
2023/03/12 04:17:46;;;;;;;5.93;3.22;;;1.90;99.90;;;;;;5124137;27;20625;-77
2023/03/12 04:20:12;;;;;;;7.55;3.70;;;0.80;99.90;;;;;;5117408;27;20038;-77
2023/03/12 04:22:38;;;;;;;11.90;3.60;;;0.80;99.90;;;;;;5134929;27;20046;-77
2023/03/12 04:25:06;;;;;;;6.63;3.28;;;1.00;99.90;;;;;;5117701;27;20479;-78
2023/03/12 04:27:32;;;;;;;6.30;3.40;;;0.80;99.90;;;;;;5103243;27;20114;-78
2023/03/12 04:29:58;;;;;;;6.22;3.42;;;2.40;99.90;;;;;;5128911;27;20038;-77
2023/03/12 04:32:24;;;;;;;5.43;3.20;;;1.40;99.90;;;;;;5115565;27;20510;-77
2023/03/12 04:34:49;;;;;;;8.45;3.45;;;1.40;99.90;;;;;;5123669;27;20065;-77
2023/03/12 04:37:15;;;;;;;7.85;3.00;;;1.10;99.90;;;;;;5134294;27;20046;-77
2023/03/12 04:39:42;;;;;;;5.93;3.60;;;0.80;99.90;;;;;;5126914;27;20551;-77
2023/03/12 04:42:09;;;;;;;5.30;3.00;;;1.00;99.90;;;;;;5125179;27;20057;-77
2023/03/12 04:44:36;;;;;;;6.55;3.00;;;1.30;99.90;;;;;;5105588;27;20056;-81
2023/03/12 04:47:02;;;;;;;6.93;3.47;;;0.80;99.90;;;;;;5125297;27;20067;-77
2023/03/12 04:49:28;;;;;;;8.07;3.10;;;0.90;99.90;;;;;;5116280;27;20390;-77
2023/03/12 04:51:54;;;;;;;5.80;3.25;;;2.10;99.90;;;;;;5102245;27;20068;-77
2023/03/12 04:54:20;;;;;;;5.95;3.58;;;0.90;99.90;;;;;;5110897;27;20677;-77
2023/03/12 04:56:47;;;;;;;6.82;3.28;;;2.20;99.90;;;;;;5100533;27;20046;-76
2023/03/12 04:59:13;;;;;;;8.85;3.33;;;0.90;99.90;;;;;;5122957;27;20082;-77
2023/03/12 05:01:38;;;;;;;4.80;2.92;;;1.80;99.90;;;;;;5100801;27;20046;-77
2023/03/12 05:04:05;;;;;;;7.90;3.35;;;1.80;99.90;;;;;;5101322;27;20038;-77
2023/03/12 05:06:32;;;;;;;7.68;3.38;;;1.30;99.90;;;;;;5116232;27;20462;-77
2023/03/12 05:08:58;;;;;;;6.90;3.50;;;2.30;99.90;;;;;;5116390;27;20039;-77
2023/03/12 05:11:24;;;;;;;4.55;3.08;;;1.20;99.90;;;;;;5128845;27;20544;-77
2023/03/12 05:13:50;;;;;;;6.97;3.50;;;1.80;99.90;;;;;;5119233;27;20577;-78
2023/03/12 05:16:16;;;;;;;5.20;3.40;;;2.00;99.90;;;;;;5119692;27;20101;-77
2023/03/12 05:18:42;;;;;;;8.93;4.05;;;0.90;99.90;;;;;;5117375;27;20054;-78
2023/03/12 05:21:12;;;;;;;6.03;4.25;;;1.70;99.90;;;;;;5126923;27;20042;-77
2023/03/12 05:23:38;;;;;;;8.90;3.72;;;1.30;99.90;;;;;;5110973;27;20050;-79
2023/03/12 05:26:05;;;;;;;8.35;3.70;;;2.60;99.90;;;;;;5095965;27;20456;-78
2023/03/12 05:28:32;;;;;;;9.48;3.85;;;1.90;99.90;;;;;;5121486;27;20089;-77
2023/03/12 05:30:59;;;;;;;6.50;3.95;;;1.10;99.90;;;;;;5125990;27;20447;-77
2023/03/12 05:33:27;;;;;;;6.95;3.70;;;0.90;99.90;;;;;;5147404;27;20074;-77
2023/03/12 05:35:52;;;;;;;7.68;3.42;;;1.00;99.90;;;;;;5122113;27;20133;-77
2023/03/12 05:38:18;;;;;;;8.88;4.18;;;2.40;99.90;;;;;;5138722;27;20584;-77
2023/03/12 05:40:53;;;;;;;6.78;3.70;;;2.20;99.90;;;;;;5110344;27;20059;-78
2023/03/12 05:43:19;;;;;;;6.72;3.88;;;1.00;99.90;;;;;;5122422;27;20042;-79
2023/03/12 05:45:45;;;;;;;5.55;3.63;;;2.20;99.90;;;;;;5114864;27;20094;-79
2023/03/12 05:48:11;;;;;;;7.47;3.53;;;2.00;99.90;;;;;;5101430;27;20517;-79
2023/03/12 05:50:37;;;;;;;5.68;3.42;;;2.40;99.90;;;;;;5099587;27;20043;-80
2023/03/12 05:53:03;;;;;;;6.78;3.33;;;1.10;99.90;;;;;;5084054;27;20746;-82
2023/03/12 05:55:29;;;;;;;5.03;3.35;;;1.10;99.90;;;;;;5101535;27;20517;-79
2023/03/12 05:57:55;;;;;;;7.93;3.17;;;1.10;99.90;;;;;;5115578;27;20074;-79
2023/03/12 06:00:21;;;;;;;7.65;3.72;;;1.20;99.90;;;;;;5101323;27;20311;-80
2023/03/12 06:02:47;;;;;;;4.85;2.95;;;1.20;99.90;;;;;;5114339;27;20049;-79
2023/03/12 06:05:13;;;;;;;6.30;2.92;;;1.30;99.90;;;;;;5100743;27;20057;-82
2023/03/12 06:07:38;;;;;;;6.32;3.70;;;1.30;99.90;;;;;;5092149;27;20057;-82
2023/03/12 06:10:05;;;;;;;6.97;3.17;;;1.30;99.90;;;;;;5131230;27;20035;-80
2023/03/12 06:12:30;;;;;;;5.88;2.72;;;1.30;99.90;;;;;;5119531;27;20045;-79
2023/03/12 06:14:57;;;;;;;7.50;2.97;;;3.00;99.90;;;;;;5114617;27;20038;-79
2023/03/12 06:17:28;;;;;;;4.80;2.80;;;1.40;99.90;;;;;;5132957;27;20069;-79
2023/03/12 06:19:54;;;;;;;5.45;2.70;;;2.10;99.90;;;;;;5114424;27;20038;-79
2023/03/12 06:22:20;;;;;;;5.95;2.70;;;3.10;99.90;;;;;;5102585;27;20049;-78
2023/03/12 06:24:46;;;;;;;4.75;2.75;;;2.10;99.90;;;;;;5116325;27;20070;-79
2023/03/12 06:27:13;;;;;;;6.78;2.60;;;1.70;99.90;;;;;;5128237;27;20114;-78
2023/03/12 06:29:39;;;;;;;5.03;2.90;;;1.80;99.90;;;;;;5121698;27;20071;-78
2023/03/12 06:32:07;;;;;;;4.10;2.80;;;1.70;99.90;;;;;;5112538;27;20917;-79
2023/03/12 06:34:33;;;;;;;5.03;2.90;;;1.50;99.90;;;;;;5118331;27;20047;-78
2023/03/12 06:36:59;;;;;;;5.30;2.50;;;1.90;99.90;;;;;;5117653;27;20042;-80
2023/03/12 06:39:25;;;;;;;4.38;2.70;;;1.90;99.90;;;;;;5133445;27;20521;-78
2023/03/12 06:41:51;;;;;;;5.35;3.17;;;1.50;99.90;;;;;;5126770;27;20050;-80
2023/03/12 06:44:17;;;;;;;4.88;3.03;;;3.00;99.90;;;;;;5103707;27;20429;-79
2023/03/12 06:46:43;;;;;;;4.63;3.03;;;1.70;99.90;;;;;;5108965;27;20050;-80
2023/03/12 06:49:10;;;;;;;6.03;2.65;;;1.50;99.90;;;;;;5119138;27;20479;-79
2023/03/12 06:51:36;;;;;;;7.05;2.58;;;1.60;99.90;;;;;;5121343;27;20076;-78
2023/03/12 06:54:02;;;;;;;5.95;2.95;;;1.80;99.90;;;;;;5122319;27;20050;-78
2023/03/12 06:56:29;;;;;;;7.90;3.22;;;1.70;99.90;;;;;;5105434;27;20046;-79
2023/03/12 06:58:55;;;;;;;6.40;3.08;;;1.60;99.90;;;;;;5133480;27;20568;-80
2023/03/12 07:01:21;;;;;;;6.68;3.10;;;;;;;;;;5135811;27;20716;-79
2023/03/12 07:03:47;;;;;;;4.93;3.22;;;1.50;99.90;;;;;;5109431;27;20038;-78
2023/03/12 07:06:19;;;;;;;6.65;3.03;;;3.00;99.90;;;;;;5104703;27;20534;-81
2023/03/12 07:08:45;;;;;;;6.60;3.15;;;1.80;99.90;;;;;;5119315;27;20054;-80
2023/03/12 07:11:10;;;;;;;6.32;3.50;;;1.70;99.90;;;;;;5134962;27;20046;-76
2023/03/12 07:13:37;;;;;;;6.60;3.90;;;3.30;99.90;;;;;;5136405;27;20038;-80
2023/03/12 07:16:03;;;;;;;6.22;3.88;;;1.40;99.90;;;;;;5123792;27;20779;-78
2023/03/12 07:18:29;;;;;;;6.80;3.65;;;1.20;99.90;;;;;;5120427;27;20098;-78
2023/03/12 07:20:55;;;;;;;8.70;4.35;;;1.40;99.90;;;;;;5119324;27;20152;-80
2023/03/12 07:23:22;;;;;;;6.30;3.97;;;1.40;99.90;;;;;;5109988;27;20124;-80
2023/03/12 07:25:48;;;;;;;5.60;3.42;;;2.60;99.90;;;;;;5122162;27;20038;-80
2023/03/12 07:28:17;;;;;;;6.40;4.18;;;2.70;99.90;;;;;;5120130;27;20043;-78
2023/03/12 08:29:05;;;;;;;11.15;5.15;;;1.40;99.90;;;;;;4807814;29;20429;-82
2023/03/12 08:31:32;;;;;;;8.10;5.25;;;1.40;99.90;;;;;;4808391;29;20061;-84
2023/03/12 08:33:58;;;;;;;7.57;4.70;;;2.90;99.90;;;;;;4818401;29;20073;-86
2023/03/12 08:36:24;;;;;;;9.13;5.40;;;1.50;99.90;;;;;;4793984;29;20644;-84
2023/03/12 08:38:50;;;;;;;9.18;5.15;;;1.50;99.90;;;;;;4815349;29;20524;-83
2023/03/12 08:41:16;;;;;;;12.82;5.50;;;-0.10;99.90;;;;;;4802293;29;20062;-83
2023/03/12 08:43:42;;;;;;;9.23;5.25;;;1.90;99.90;;;;;;4819054;29;20062;-84
2023/03/12 08:46:08;;;;;;;8.63;5.32;;;1.80;99.90;;;;;;4816180;29;20525;-82
2023/03/12 08:48:34;;;;;;;8.80;5.00;;;1.50;99.90;;;;;;4815698;29;20106;-84
2023/03/12 08:51:04;;;;;;;9.23;5.30;;;1.70;99.90;;;;;;4810025;29;20070;-83
2023/03/12 08:53:32;;;;;;;10.18;6.53;;;2.00;99.90;;;;;;4800295;29;20497;-84
2023/03/12 08:55:59;;;;;;;11.30;6.80;;;1.70;99.90;;;;;;4814011;29;20061;-83
2023/03/12 08:58:26;;;;;;;8.23;6.57;;;1.60;99.90;;;;;;4807498;29;20445;-84
2023/03/12 09:00:52;;;;;;;13.68;7.93;;;1.90;99.90;;;;;;4814172;29;20609;-84
2023/03/12 09:03:20;;;;;;;11.90;7.78;;;1.90;99.90;;;;;;4800451;29;20050;-85
2023/03/12 09:05:47;;;;;;;13.38;7.57;;;2.00;99.90;;;;;;4800543;29;20492;-84
2023/03/12 09:08:14;;;;;;;11.40;7.28;;;2.40;99.90;;;;;;4795884;29;20060;-85
2023/03/12 09:10:40;;;;;;;15.73;7.88;;;2.20;99.90;;;;;;4809712;29;20121;-84
2023/03/12 09:13:07;;;;;;;11.80;8.10;;;2.40;99.90;;;;;;4800004;29;20086;-84
2023/03/12 09:15:33;;;;;;;13.88;8.18;;;2.20;99.90;;;;;;4814594;29;20088;-85
2023/03/12 09:17:58;;;;;;;15.75;8.65;;;1.00;99.90;;;;;;4801787;29;20743;-84
2023/03/12 09:20:24;;;;;;;15.27;8.45;;;2.30;99.90;;;;;;4803575;29;20058;-82
2023/03/12 09:22:50;;;;;;;15.57;9.63;;;2.40;99.90;;;;;;4815383;29;20062;-85
2023/03/12 09:25:17;;;;;;;15.00;9.75;;;2.50;99.90;;;;;;4815939;29;20050;-84
2023/03/12 09:27:46;;;;;;;14.45;9.02;;;2.50;99.90;;;;;;4810255;29;20066;-86
2023/03/12 09:30:25;;;;;;;12.30;8.45;;;3.00;99.90;;;;;;4819990;29;20062;-90
2023/03/12 09:32:52;;;;;;;16.33;10.32;;;2.00;99.90;;;;;;4801995;29;20085;-81
2023/03/12 09:35:18;;;;;;;16.73;8.85;;;2.80;99.90;;;;;;4813750;29;20058;-87
2023/03/12 09:37:48;;;;;;;13.32;9.52;;;2.70;99.90;;;;;;4803925;29;20057;-88
2023/03/12 09:40:19;;;;;;;16.75;9.95;;;2.80;99.90;;;;;;4816994;29;20192;-88
2023/03/12 09:42:58;;;;;;;17.65;10.15;;;1.50;99.90;;;;;;4821541;29;20057;-84
2023/03/12 09:45:26;;;;;;;17.70;10.40;;;2.90;99.90;;;;;;4826363;29;20055;-86
2023/03/12 09:47:55;;;;;;;16.15;9.85;;;1.50;99.90;;;;;;4817100;29;20061;-83
2023/03/12 09:50:38;;;;;;;15.80;10.75;;;3.00;99.90;;;;;;4813353;29;20060;-83
2023/03/12 09:53:30;;;;;;;17.42;10.43;;;3.00;99.90;;;;;;4808914;29;20054;-84
2023/03/12 09:55:58;;;;;;;20.08;11.50;;;3.10;99.90;;;;;;4818031;29;20050;-85
2023/03/12 09:58:30;;;;;;;17.55;10.80;;;3.20;99.90;;;;;;4811166;29;20064;-85
2023/03/12 10:01:03;;;;;;;18.30;10.90;;;3.20;99.90;;;;;;4793617;29;20922;-86
2023/03/12 10:03:44;;;;;;;15.02;11.35;;;3.30;99.90;;;;;;4816654;29;20512;-88
2023/03/12 10:06:12;;;;;;;17.58;10.93;;;3.60;99.90;;;;;;4813786;29;20399;-85
2023/03/12 10:08:56;;;;;;;19.77;12.48;;;3.40;99.90;;;;;;4816614;29;20064;-84
2023/03/12 10:11:49;;;;;;;18.75;12.50;;;3.50;99.90;;;;;;4819286;29;20095;-86
2023/03/12 10:14:21;;;;;;;17.20;11.75;;;3.70;99.90;;;;;;4820164;29;20157;-85
2023/03/12 10:17:22;;;;;;;19.75;12.43;;;3.70;99.90;;;;;;4824108;29;20077;-86
2023/03/12 10:20:03;;;;;;;19.77;11.93;;;3.80;99.90;;;;;;4819567;29;20632;-87
2023/03/12 10:22:41;;;;;;;20.45;12.75;;;3.90;99.90;;;;;;4819151;29;20090;-86
2023/03/12 10:25:07;;;;;;;24.85;14.20;;;4.10;99.90;;;;;;4816043;29;20058;-86
2023/03/12 10:27:36;;;;;;;23.15;13.23;;;4.10;99.90;;;;;;4817475;29;20088;-87
2023/03/12 10:30:12;;;;;;;24.05;14.57;;;4.40;99.90;;;;;;4818961;29;20075;-86
2023/03/12 10:32:44;;;;;;;24.35;13.40;;;4.40;99.90;;;;;;4819476;29;20070;-87
2023/03/12 10:35:17;;;;;;;21.10;13.30;;;4.50;99.90;;;;;;4824142;29;20046;-85
2023/03/12 10:37:57;;;;;;;25.50;13.85;;;4.60;99.90;;;;;;4826904;29;20082;-85
2023/03/12 10:40:26;;;;;;;26.35;14.60;;;4.70;99.90;;;;;;4812965;29;20056;-85
2023/03/12 10:42:53;;;;;;;24.73;14.32;;;4.80;99.90;;;;;;4845557;29;20046;-85
2023/03/12 10:46:00;;;;;;;27.88;15.98;;;5.00;99.90;;;;;;4840043;29;20062;-83
2023/03/12 10:48:26;;;;;;;25.23;14.20;;;5.00;99.90;;;;;;4825807;29;20046;-86
2023/03/12 10:51:07;;;;;;;27.83;13.75;;;5.10;99.90;;;;;;4792793;29;20054;-86
2023/03/12 10:53:36;;;;;;;28.98;15.02;;;5.20;99.90;;;;;;4821549;29;20132;-85
2023/03/12 10:56:07;;;;;;;30.05;13.98;;;5.30;99.90;;;;;;4835918;29;20054;-87
2023/03/12 10:58:51;;;;;;;27.98;12.85;;;5.40;99.90;;;;;;4818273;29;20133;-86
2023/03/12 11:01:23;;;;;;;31.33;12.77;;;5.60;99.90;;;;;;4830677;29;20102;-85
2023/03/12 11:03:50;;;;;;;25.08;11.15;;;5.60;99.90;;;;;;4832359;29;20091;-86
2023/03/12 11:06:34;;;;;;;27.85;11.30;;;5.70;99.90;;;;;;4819290;29;20066;-87
2023/03/12 11:09:13;;;;;;;22.02;10.30;;;5.70;99.90;;;;;;4800698;29;20448;-85
2023/03/12 11:11:39;;;;;;;22.85;9.75;;;5.80;99.90;;;;;;4800892;29;20070;-84
2023/03/12 11:14:16;;;;;;;28.73;10.13;;;5.90;99.90;;;;;;4793040;29;20087;-84
2023/03/12 11:16:42;;;;;;;24.58;9.38;;;6.00;99.90;;;;;;4816078;29;20062;-89
2023/03/12 11:19:13;;;;;;;25.35;9.75;;;6.00;99.90;;;;;;4811619;29;20064;-87
2023/03/12 11:21:39;;;;;;;30.50;9.85;;;6.10;99.90;;;;;;4815096;29;20050;-88
2023/03/12 11:24:07;;;;;;;28.15;9.43;;;6.20;99.90;;;;;;4804996;29;20379;-87
2023/03/12 11:26:47;;;;;;;32.97;9.23;;;6.30;99.90;;;;;;4801602;29;20050;-86
2023/03/12 11:29:24;;;;;;;33.50;10.05;;;6.40;99.90;;;;;;4830707;29;20054;-86
2023/03/12 11:31:55;;;;;;;30.10;9.07;;;6.40;99.90;;;;;;4815730;29;20057;-87
2023/03/12 11:34:34;;;;;;;28.65;9.00;;;6.40;99.90;;;;;;4824013;29;20054;-85
2023/03/12 11:37:03;;;;;;;32.25;9.30;;;6.60;99.90;;;;;;4810765;29;20858;-85
2023/03/12 11:40:08;;;;;;;29.83;8.60;;;6.50;99.90;;;;;;4825324;29;20042;-86
2023/03/12 11:42:40;;;;;;;26.55;8.50;;;6.70;99.90;;;;;;4821206;29;20106;-85
2023/03/12 11:45:41;;;;;;;33.50;8.52;;;6.80;99.90;;;;;;4817282;29;20050;-85
2023/03/12 11:48:24;;;;;;;37.75;8.82;;;6.90;99.90;;;;;;4795466;29;20064;-84
2023/03/12 11:51:13;;;;;;;38.75;9.18;;;7.00;99.90;;;;;;4800967;29;20061;-90
2023/03/12 11:53:52;;;;;;;37.72;8.68;;;7.00;99.90;;;;;;4819786;29;20086;-86
2023/03/12 11:56:35;;;;;;;29.50;7.43;;;7.10;99.90;;;;;;4818483;29;20402;-86
2023/03/12 11:59:49;;;;;;;37.25;7.28;;;7.10;99.90;;;;;;4795246;29;20069;-88
2023/03/12 12:02:35;;;;;;;24.63;7.10;;;7.10;99.90;;;;;;4819992;29;20058;-89
2023/03/12 12:05:23;;;;;;;26.55;7.78;;;7.30;99.90;;;;;;4818929;29;20641;-87
2023/03/12 12:08:08;;;;;;;33.30;7.90;;;7.50;99.90;;;;;;4806871;29;20542;-88
2023/03/12 12:11:09;;;;;;;29.73;7.28;;;7.70;99.90;;;;;;4816634;29;20493;-87
2023/03/12 12:14:13;;;;;;;32.97;7.13;;;8.00;99.90;;;;;;4819461;29;20562;-88
2023/03/12 12:16:42;;;;;;;33.25;6.72;;;8.30;99.90;;;;;;4815792;29;20054;-88
2023/03/12 12:19:46;;;;;;;27.95;6.97;;;8.30;99.90;;;;;;4816288;29;20057;-88
2023/03/12 12:22:40;;;;;;;26.25;6.05;;;8.20;99.90;;;;;;4830800;29;20076;-87
2023/03/12 12:25:21;;;;;;;31.27;5.57;;;7.90;99.90;;;;;;4820589;29;20058;-86
2023/03/12 12:28:20;;;;;;;33.40;6.80;;;6.50;99.90;;;;;;4815356;29;20066;-87
2023/03/12 12:31:24;;;;;;;23.25;5.80;;;7.90;99.90;;;;;;4815917;29;20062;-87
2023/03/12 12:34:15;;;;;;;26.45;6.07;;;8.30;99.90;;;;;;4800288;29;20046;-86
2023/03/12 12:37:20;;;;;;;27.75;6.00;;;8.80;99.90;;;;;;4804476;29;20059;-86
2023/03/12 12:40:07;;;;;;;27.25;6.10;;;9.30;99.90;;;;;;4787507;29;20058;-86
2023/03/12 12:42:44;;;;;;;22.92;5.70;;;9.90;99.90;;;;;;4798646;29;20073;-86
2023/03/12 12:45:13;;;;;;;19.38;4.70;;;10.10;99.90;;;;;;4813678;29;20140;-85
2023/03/12 12:47:51;;;;;;;29.05;5.07;;;10.10;99.90;;;;;;4802473;29;20054;-87
2023/03/12 12:50:21;;;;;;;24.83;4.63;;;9.90;99.90;;;;;;4814902;29;20082;-87
2023/03/12 12:52:56;;;;;;;22.50;4.88;;;9.60;99.90;;;;;;4814223;29;20125;-85
2023/03/12 12:55:46;;;;;;;24.90;4.78;;;9.10;99.90;;;;;;4809510;29;20054;-85
2023/03/12 12:58:25;;;;;;;23.02;4.50;;;8.80;99.90;;;;;;4813521;29;20085;-85
2023/03/12 13:00:59;;;;;;;24.48;4.53;;;8.50;99.90;;;;;;4815180;29;20051;-88
2023/03/12 13:03:26;;;;;;;23.05;4.68;;;8.50;99.90;;;;;;4819482;29;20111;-88
2023/03/12 13:05:54;;;;;;;32.40;5.05;;;8.30;99.90;;;;;;4801639;29;20073;-85
2023/03/12 13:08:42;;;;;;;26.70;4.30;;;8.20;99.90;;;;;;4803667;29;20078;-87
2023/03/12 13:11:32;;;;;;;21.13;4.90;;;8.40;99.90;;;;;;4818783;29;20054;-85
2023/03/12 13:14:01;;;;;;;23.05;4.53;;;8.30;99.90;;;;;;4815968;29;20133;-85
2023/03/12 13:16:41;;;;;;;23.10;5.03;;;8.20;99.90;;;;;;4813678;29;20070;-87
2023/03/12 13:19:23;;;;;;;21.90;4.93;;;8.20;99.90;;;;;;4815275;29;20054;-86
2023/03/12 13:22:20;;;;;;;30.00;5.22;;;7.00;99.90;;;;;;4794714;29;20054;-88
2023/03/12 13:25:04;;;;;;;23.83;4.55;;;8.30;99.90;;;;;;4816863;29;20080;-89
2023/03/12 13:27:39;;;;;;;25.05;4.85;;;8.40;99.90;;;;;;4813704;29;20061;-87
2023/03/12 13:30:27;;;;;;;26.13;5.38;;;7.00;99.90;;;;;;4813972;29;20510;-88
2023/03/12 13:32:56;;;;;;;25.80;4.95;;;8.70;99.90;;;;;;4816901;29;20487;-88
2023/03/12 13:35:28;;;;;;;22.75;5.68;;;8.70;99.90;;;;;;4816938;29;20062;-85
2023/03/12 13:37:54;;;;;;;22.15;5.15;;;8.90;99.90;;;;;;4824966;29;20077;-86
2023/03/12 13:40:28;;;;;;;25.85;5.60;;;9.10;99.90;;;;;;4813493;29;20495;-86
2023/03/12 13:43:34;;;;;;;27.55;5.07;;;9.40;99.90;;;;;;4798101;29;20137;-87
2023/03/12 13:46:29;;;;;;;23.00;4.90;;;9.70;99.90;;;;;;4810224;29;20058;-88
2023/03/12 13:49:02;;;;;;;21.92;5.00;;;9.70;99.90;;;;;;4797360;29;20054;-86
2023/03/12 13:51:27;;;;;;;25.83;5.55;;;9.70;99.90;;;;;;4815929;29;20137;-86
2023/03/12 13:53:59;;;;;;;22.63;4.80;;;9.70;99.90;;;;;;4806483;29;20129;-88
2023/03/12 13:56:31;;;;;;;29.10;5.28;;;9.60;99.90;;;;;;4815456;29;20054;-88
2023/03/12 13:59:14;;;;;;;24.92;5.40;;;9.70;99.90;;;;;;4815215;29;20081;-87
2023/03/12 14:01:46;;;;;;;24.05;5.50;;;9.70;99.90;;;;;;4814855;29;20054;-88
2023/03/12 14:04:26;;;;;;;27.63;5.22;;;9.90;99.90;;;;;;4815748;29;20064;-88
2023/03/12 14:07:11;;;;;;;32.35;5.80;;;10.00;99.90;;;;;;4815093;29;20121;-89
2023/03/12 14:09:49;;;;;;;23.88;6.18;;;9.80;99.90;;;;;;4802998;29;20049;-88